createdAt,value
2017-08-24T00:00:09.328Z,60.89
2017-08-24T00:00:19.326Z,60.99
2017-08-24T00:00:29.329Z,61.08
2017-08-24T00:00:39.324Z,60.99
2017-08-24T00:00:49.359Z,61.18
2017-08-24T00:00:59.383Z,61.18
2017-08-24T00:01:09.379Z,60.89
2017-08-24T00:01:19.433Z,61.27
2017-08-24T00:01:29.410Z,60.99
2017-08-24T00:01:39.420Z,61.05
2017-08-24T00:01:49.418Z,61.05
2017-08-24T00:01:59.509Z,61.05
2017-08-24T00:02:09.151Z,61.18
2017-08-24T00:02:19.559Z,61.08
2017-08-24T00:02:29.139Z,61.18
2017-08-24T00:02:39.499Z,61.27
2017-08-24T00:02:49.551Z,61.18
2017-08-24T00:02:59.548Z,61.08
2017-08-24T00:03:09.589Z,60.99
2017-08-24T00:03:19.653Z,60.96
2017-08-24T00:03:29.239Z,61.27
2017-08-24T00:03:39.588Z,61.25
2017-08-24T00:03:49.272Z,60.99
2017-08-24T00:03:59.668Z,60.99
2017-08-24T00:04:09.649Z,61.08
2017-08-24T00:04:19.670Z,61.05
2017-08-24T00:04:29.684Z,60.86
2017-08-24T00:04:39.425Z,61.05
2017-08-24T00:04:49.689Z,60.96
2017-08-24T00:04:59.688Z,60.99
2017-08-24T00:05:09.690Z,60.99
2017-08-24T00:05:19.727Z,60.96
2017-08-24T00:05:29.748Z,60.89
2017-08-24T00:05:39.779Z,61.15
2017-08-24T00:05:49.778Z,61.08
2017-08-24T00:05:59.820Z,60.86
2017-08-24T00:06:09.808Z,60.89
2017-08-24T00:06:19.819Z,61.25
2017-08-24T00:06:29.500Z,60.99
2017-08-24T00:06:39.847Z,60.99
2017-08-24T00:06:49.858Z,60.99
2017-08-24T00:06:59.899Z,61.15
2017-08-24T00:07:09.889Z,61.15
2017-08-24T00:07:19.894Z,60.96
2017-08-24T00:07:29.899Z,60.99
2017-08-24T00:07:39.579Z,60.96
2017-08-24T00:07:49.933Z,60.86
2017-08-24T00:07:59.944Z,60.99
2017-08-24T00:08:09.999Z,61.18
2017-08-24T00:08:19.969Z,61.15
2017-08-24T00:08:30.004Z,60.89
2017-08-24T00:08:40.009Z,60.99
2017-08-24T00:08:50.018Z,61.27
2017-08-24T00:08:59.709Z,60.96
2017-08-24T00:09:10.118Z,60.86
2017-08-24T00:09:20.108Z,60.99
2017-08-24T00:09:30.060Z,61.37
2017-08-24T00:09:40.138Z,60.86
2017-08-24T00:09:50.138Z,60.99
2017-08-24T00:09:59.859Z,61.27
2017-08-24T00:10:10.189Z,61.27
2017-08-24T00:10:20.209Z,60.86
2017-08-24T00:10:30.157Z,60.96
2017-08-24T00:10:40.187Z,61.27
2017-08-24T00:10:49.859Z,61.37
2017-08-24T00:11:00.200Z,61.34
2017-08-24T00:11:10.189Z,61.34
2017-08-24T00:11:20.229Z,61.34
2017-08-24T00:11:30.269Z,60.89
2017-08-24T00:11:40.259Z,61.37
2017-08-24T00:11:50.329Z,61.37
2017-08-24T00:12:00.320Z,60.86
2017-08-24T00:12:10.299Z,61.27
2017-08-24T00:12:20.349Z,61.34
2017-08-24T00:12:30.419Z,61.34
2017-08-24T00:12:40.350Z,61.34
2017-08-24T00:12:50.389Z,61.34
2017-08-24T00:13:00.539Z,61.34
2017-08-24T00:13:10.447Z,61.34
2017-08-24T00:13:20.099Z,61.15
2017-08-24T00:13:30.538Z,61.15
2017-08-24T00:13:40.406Z,61.34
2017-08-24T00:13:50.118Z,61.15
2017-08-24T00:14:00.489Z,61.18
2017-08-24T00:14:10.490Z,61.25
2017-08-24T00:14:20.468Z,61.27
2017-08-24T00:14:30.508Z,61.34
2017-08-24T00:14:40.199Z,61.37
2017-08-24T00:14:50.688Z,61.25
2017-08-24T00:15:00.531Z,60.86
2017-08-24T00:15:10.208Z,61.37
2017-08-24T00:15:20.602Z,61.37
2017-08-24T00:15:30.600Z,61.15
2017-08-24T00:15:40.599Z,61.34
2017-08-24T00:15:50.699Z,61.27
2017-08-24T00:16:00.637Z,61.34
2017-08-24T00:16:10.640Z,61.34
2017-08-24T00:16:20.638Z,61.27
2017-08-24T00:16:30.637Z,61.15
2017-08-24T00:16:40.689Z,61.34
2017-08-24T00:16:50.719Z,61.34
2017-08-24T00:17:00.709Z,61.34
2017-08-24T00:17:10.758Z,61.37
2017-08-24T00:17:20.398Z,61.34
2017-08-24T00:17:30.407Z,61.25
2017-08-24T00:17:40.785Z,61.25
2017-08-24T00:17:50.780Z,61.37
2017-08-24T00:18:00.820Z,61.34
2017-08-24T00:18:10.785Z,61.18
2017-08-24T00:18:20.821Z,61.37
2017-08-24T00:18:30.849Z,61.25
2017-08-24T00:18:40.879Z,61.18
2017-08-24T00:18:50.869Z,61.34
2017-08-24T00:19:00.870Z,61.37
2017-08-24T00:19:10.925Z,61.25
2017-08-24T00:19:20.898Z,61.25
2017-08-24T00:19:30.924Z,61.37
2017-08-24T00:19:40.920Z,61.37
2017-08-24T00:19:50.949Z,61.37
2017-08-24T00:20:00.959Z,61.34
2017-08-24T00:20:10.960Z,60.86
2017-08-24T00:20:20.948Z,61.37
2017-08-24T00:20:31.056Z,61.37
2017-08-24T00:20:41.020Z,61.27
2017-08-24T00:20:51.030Z,61.15
2017-08-24T00:21:01.040Z,61.25
2017-08-24T00:21:11.050Z,61.15
2017-08-24T00:21:21.090Z,61.27
2017-08-24T00:21:31.100Z,61.25
2017-08-24T00:21:41.103Z,61.25
2017-08-24T00:21:51.096Z,61.25
2017-08-24T00:22:01.149Z,61.27
2017-08-24T00:22:11.119Z,61.37
2017-08-24T00:22:21.159Z,61.34
2017-08-24T00:22:31.161Z,61.25
2017-08-24T00:22:41.180Z,61.34
2017-08-24T00:22:51.199Z,61.37
2017-08-24T00:23:01.189Z,61.27
2017-08-24T00:23:11.240Z,61.25
2017-08-24T00:23:21.249Z,61.34
2017-08-24T00:23:31.270Z,61.15
2017-08-24T00:23:41.240Z,61.34
2017-08-24T00:23:51.289Z,61.34
2017-08-24T00:24:01.277Z,61.25
2017-08-24T00:24:11.290Z,61.27
2017-08-24T00:24:20.967Z,61.27
2017-08-24T00:24:31.320Z,60.96
2017-08-24T00:24:41.389Z,61.25
2017-08-24T00:24:51.360Z,61.25
2017-08-24T00:25:01.382Z,61.34
2017-08-24T00:25:11.368Z,61.25
2017-08-24T00:25:21.440Z,61.27
2017-08-24T00:25:31.430Z,61.34
2017-08-24T00:25:41.430Z,61.34
2017-08-24T00:25:51.420Z,61.25
2017-08-24T00:26:01.152Z,61.34
2017-08-24T00:26:11.449Z,61.34
2017-08-24T00:26:21.516Z,61.25
2017-08-24T00:26:31.500Z,61.25
2017-08-24T00:26:41.516Z,61.25
2017-08-24T00:26:51.563Z,61.27
2017-08-24T00:27:01.588Z,61.25
2017-08-24T00:27:11.609Z,61.27
2017-08-24T00:27:21.616Z,61.25
2017-08-24T00:27:31.590Z,61.27
2017-08-24T00:27:41.257Z,61.34
2017-08-24T00:27:51.653Z,61.25
2017-08-24T00:28:01.590Z,61.25
2017-08-24T00:28:11.676Z,61.25
2017-08-24T00:28:21.687Z,61.27
2017-08-24T00:28:31.671Z,61.44
2017-08-24T00:28:41.714Z,61.25
2017-08-24T00:28:51.711Z,61.25
2017-08-24T00:29:01.757Z,61.25
2017-08-24T00:29:11.397Z,61.47
2017-08-24T00:29:21.720Z,61.25
2017-08-24T00:29:31.440Z,61.27
2017-08-24T00:29:41.750Z,61.37
2017-08-24T00:29:51.800Z,61.25
2017-08-24T00:30:01.809Z,61.25
2017-08-24T00:30:11.829Z,61.25
2017-08-24T00:30:21.830Z,61.25
2017-08-24T00:30:31.839Z,61.34
2017-08-24T00:30:41.855Z,61.34
2017-08-24T00:30:51.911Z,61.37
2017-08-24T00:31:01.878Z,61.05
2017-08-24T00:31:12.029Z,61.34
2017-08-24T00:31:21.900Z,61.25
2017-08-24T00:31:31.910Z,61.25
2017-08-24T00:31:41.930Z,61.25
2017-08-24T00:31:51.950Z,61.27
2017-08-24T00:32:02.006Z,61.34
2017-08-24T00:32:11.990Z,61.25
2017-08-24T00:32:22.018Z,61.25
2017-08-24T00:32:31.999Z,61.15
2017-08-24T00:32:42.011Z,61.34
2017-08-24T00:32:52.030Z,61.27
2017-08-24T00:33:01.750Z,61.15
2017-08-24T00:33:12.051Z,61.34
2017-08-24T00:33:22.093Z,61.27
2017-08-24T00:33:32.129Z,61.05
2017-08-24T00:33:42.091Z,61.27
2017-08-24T00:33:51.814Z,61.25
2017-08-24T00:34:02.185Z,61.34
2017-08-24T00:34:12.150Z,61.08
2017-08-24T00:34:22.161Z,61.15
2017-08-24T00:34:32.190Z,61.15
2017-08-24T00:34:42.160Z,61.15
2017-08-24T00:34:52.200Z,61.15
2017-08-24T00:35:02.240Z,61.25
2017-08-24T00:35:12.219Z,61.05
2017-08-24T00:35:22.256Z,61.18
2017-08-24T00:35:32.260Z,61.25
2017-08-24T00:35:42.229Z,61.15
2017-08-24T00:35:52.290Z,61.25
2017-08-24T00:36:02.330Z,61.05
2017-08-24T00:36:12.319Z,61.15
2017-08-24T00:36:22.336Z,61.25
2017-08-24T00:36:31.987Z,61.25
2017-08-24T00:36:42.310Z,61.25
2017-08-24T00:36:52.420Z,61.15
2017-08-24T00:37:02.038Z,61.25
2017-08-24T00:37:12.418Z,61.05
2017-08-24T00:37:22.399Z,61.05
2017-08-24T00:37:32.089Z,61.15
2017-08-24T00:37:42.441Z,60.96
2017-08-24T00:37:52.428Z,61.05
2017-08-24T00:38:02.450Z,61.15
2017-08-24T00:38:12.522Z,61.15
2017-08-24T00:38:22.461Z,61.15
2017-08-24T00:38:32.479Z,61.05
2017-08-24T00:38:42.561Z,61.15
2017-08-24T00:38:52.510Z,61.15
2017-08-24T00:39:02.537Z,61.25
2017-08-24T00:39:12.580Z,61.15
2017-08-24T00:39:22.529Z,61.15
2017-08-24T00:39:32.580Z,61.25
2017-08-24T00:39:42.550Z,61.15
2017-08-24T00:39:52.600Z,61.15
2017-08-24T00:40:02.630Z,61.25
2017-08-24T00:40:12.630Z,61.25
2017-08-24T00:40:22.619Z,61.15
2017-08-24T00:40:32.349Z,61.15
2017-08-24T00:40:42.630Z,61.25
2017-08-24T00:40:52.730Z,61.25
2017-08-24T00:41:02.680Z,61.25
2017-08-24T00:41:12.690Z,61.18
2017-08-24T00:41:22.750Z,61.15
2017-08-24T00:41:32.390Z,61.05
2017-08-24T00:41:42.736Z,61.15
2017-08-24T00:41:52.778Z,61.05
2017-08-24T00:42:02.804Z,61.15
2017-08-24T00:42:12.809Z,61.18
2017-08-24T00:42:22.790Z,61.25
2017-08-24T00:42:32.491Z,61.25
2017-08-24T00:42:42.511Z,61.05
2017-08-24T00:42:52.818Z,61.15
2017-08-24T00:43:02.851Z,61.15
2017-08-24T00:43:12.877Z,61.18
2017-08-24T00:43:22.879Z,60.96
2017-08-24T00:43:32.869Z,61.15
2017-08-24T00:43:43.082Z,61.25
2017-08-24T00:43:52.949Z,61.15
2017-08-24T00:44:02.941Z,61.18
2017-08-24T00:44:12.957Z,61.15
2017-08-24T00:44:23.019Z,61.15
2017-08-24T00:44:32.971Z,61.18
2017-08-24T00:44:43.000Z,61.05
2017-08-24T00:44:53.012Z,61.15
2017-08-24T00:45:02.999Z,61.15
2017-08-24T00:45:13.059Z,61.25
2017-08-24T00:45:23.100Z,61.15
2017-08-24T00:45:33.041Z,61.15
2017-08-24T00:45:43.051Z,61.15
2017-08-24T00:45:53.059Z,61.15
2017-08-24T00:46:03.112Z,61.15
2017-08-24T00:46:13.110Z,60.86
2017-08-24T00:46:23.140Z,61.15
2017-08-24T00:46:33.149Z,61.15
2017-08-24T00:46:43.161Z,60.96
2017-08-24T00:46:53.171Z,61.15
2017-08-24T00:47:03.201Z,61.15
2017-08-24T00:47:13.211Z,61.15
2017-08-24T00:47:23.261Z,61.15
2017-08-24T00:47:33.277Z,61.05
2017-08-24T00:47:43.221Z,61.15
2017-08-24T00:47:53.271Z,61.15
2017-08-24T00:48:03.271Z,61.15
2017-08-24T00:48:13.280Z,61.15
2017-08-24T00:48:23.290Z,61.15
2017-08-24T00:48:33.331Z,61.15
2017-08-24T00:48:43.301Z,61.15
2017-08-24T00:48:53.010Z,61.15
2017-08-24T00:49:03.024Z,61.15
2017-08-24T00:49:13.319Z,61.15
2017-08-24T00:49:23.401Z,61.15
2017-08-24T00:49:33.086Z,60.76
2017-08-24T00:49:43.441Z,60.96
2017-08-24T00:49:53.390Z,60.96
2017-08-24T00:50:03.079Z,60.86
2017-08-24T00:50:13.492Z,60.96
2017-08-24T00:50:23.130Z,60.86
2017-08-24T00:50:33.500Z,61.25
2017-08-24T00:50:43.516Z,60.86
2017-08-24T00:50:53.481Z,61.15
2017-08-24T00:51:03.571Z,61.05
2017-08-24T00:51:13.618Z,61.05
2017-08-24T00:51:23.571Z,60.86
2017-08-24T00:51:33.560Z,60.86
2017-08-24T00:51:43.571Z,60.86
2017-08-24T00:51:53.604Z,60.86
2017-08-24T00:52:03.587Z,61.15
2017-08-24T00:52:13.631Z,60.86
2017-08-24T00:52:23.665Z,60.86
2017-08-24T00:52:33.617Z,61.15
2017-08-24T00:52:43.641Z,60.86
2017-08-24T00:52:53.703Z,60.86
2017-08-24T00:53:03.690Z,60.99
2017-08-24T00:53:13.750Z,61.05
2017-08-24T00:53:23.789Z,60.99
2017-08-24T00:53:33.753Z,60.86
2017-08-24T00:53:43.751Z,60.96
2017-08-24T00:53:53.766Z,60.96
2017-08-24T00:54:03.778Z,61.05
2017-08-24T00:54:13.801Z,60.86
2017-08-24T00:54:23.820Z,61.05
2017-08-24T00:54:33.519Z,60.86
2017-08-24T00:54:43.818Z,60.89
2017-08-24T00:54:53.849Z,60.96
2017-08-24T00:55:03.860Z,60.96
2017-08-24T00:55:13.527Z,60.96
2017-08-24T00:55:23.931Z,61.25
2017-08-24T00:55:33.920Z,60.96
2017-08-24T00:55:43.961Z,60.96
2017-08-24T00:55:53.570Z,60.96
2017-08-24T00:56:03.941Z,60.96
2017-08-24T00:56:13.948Z,60.86
2017-08-24T00:56:23.980Z,60.96
2017-08-24T00:56:34.017Z,60.96
2017-08-24T00:56:43.672Z,60.99
2017-08-24T00:56:53.691Z,60.96
2017-08-24T00:57:04.047Z,60.96
2017-08-24T00:57:14.100Z,60.96
2017-08-24T00:57:23.760Z,60.96
2017-08-24T00:57:34.069Z,60.96
2017-08-24T00:57:43.780Z,60.99
2017-08-24T00:57:54.102Z,60.96
2017-08-24T00:58:04.070Z,60.96
2017-08-24T00:58:14.169Z,61.15
2017-08-24T00:58:23.839Z,61.05
2017-08-24T00:58:34.180Z,60.96
2017-08-24T00:58:44.202Z,60.99
2017-08-24T00:58:54.190Z,61.15
2017-08-24T00:59:04.247Z,60.96
2017-08-24T00:59:14.210Z,60.96
2017-08-24T00:59:24.228Z,60.96
2017-08-24T00:59:34.251Z,60.96
2017-08-24T00:59:44.246Z,60.96
2017-08-24T00:59:53.976Z,60.86
2017-08-24T01:00:04.280Z,60.96
2017-08-24T01:00:13.951Z,60.96
2017-08-24T01:00:24.301Z,60.96
2017-08-24T01:00:34.320Z,60.96
2017-08-24T01:00:44.322Z,60.86
2017-08-24T01:00:54.041Z,60.99
2017-08-24T01:01:05.083Z,60.96
2017-08-24T01:01:14.390Z,60.96
2017-08-24T01:01:24.381Z,60.96
2017-08-24T01:01:34.409Z,60.96
2017-08-24T01:01:44.400Z,60.99
2017-08-24T01:01:54.451Z,60.96
2017-08-24T01:02:04.414Z,60.96
2017-08-24T01:02:14.539Z,60.96
2017-08-24T01:02:24.458Z,61.05
2017-08-24T01:02:34.461Z,60.96
2017-08-24T01:02:44.521Z,60.96
2017-08-24T01:02:54.568Z,60.96
2017-08-24T01:03:04.550Z,60.96
2017-08-24T01:03:14.362Z,61.05
2017-08-24T01:03:24.610Z,60.96
2017-08-24T01:03:34.582Z,60.96
2017-08-24T01:03:44.599Z,61.05
2017-08-24T01:03:54.601Z,61.15
2017-08-24T01:04:04.617Z,60.96
2017-08-24T01:04:14.611Z,60.96
2017-08-24T01:04:24.311Z,61.15
2017-08-24T01:04:34.685Z,61.05
2017-08-24T01:04:44.670Z,61.05
2017-08-24T01:04:54.675Z,61.05
2017-08-24T01:05:04.701Z,61.05
2017-08-24T01:05:14.679Z,61.08
2017-08-24T01:05:24.691Z,60.96
2017-08-24T01:05:34.720Z,60.96
2017-08-24T01:05:44.731Z,61.05
2017-08-24T01:05:54.770Z,61.15
2017-08-24T01:06:04.754Z,61.15
2017-08-24T01:06:14.780Z,61.05
2017-08-24T01:06:24.800Z,61.05
2017-08-24T01:06:34.812Z,61.05
2017-08-24T01:06:44.500Z,61.05
2017-08-24T01:06:54.541Z,61.08
2017-08-24T01:07:04.511Z,61.05
2017-08-24T01:07:14.872Z,60.86
2017-08-24T01:07:24.913Z,61.15
2017-08-24T01:07:34.881Z,61.05
2017-08-24T01:07:44.920Z,61.15
2017-08-24T01:07:54.902Z,61.05
2017-08-24T01:08:04.962Z,61.15
2017-08-24T01:08:14.982Z,60.96
2017-08-24T01:08:24.998Z,61.15
2017-08-24T01:08:34.970Z,61.05
2017-08-24T01:08:44.991Z,61.08
2017-08-24T01:08:55.012Z,61.05
2017-08-24T01:09:04.991Z,61.18
2017-08-24T01:09:15.101Z,61.05
2017-08-24T01:09:25.053Z,61.05
2017-08-24T01:09:34.732Z,60.86
2017-08-24T01:09:45.087Z,61.15
2017-08-24T01:09:55.102Z,61.05
2017-08-24T01:10:05.111Z,61.05
2017-08-24T01:10:15.122Z,61.15
2017-08-24T01:10:25.152Z,61.05
2017-08-24T01:10:35.208Z,61.05
2017-08-24T01:10:45.152Z,61.15
2017-08-24T01:10:55.173Z,61.05
2017-08-24T01:11:05.171Z,61.05
2017-08-24T01:11:15.221Z,61.05
2017-08-24T01:11:25.257Z,60.76
2017-08-24T01:11:35.211Z,61.05
2017-08-24T01:11:45.240Z,61.15
2017-08-24T01:11:55.285Z,61.05
2017-08-24T01:12:05.268Z,60.86
2017-08-24T01:12:15.418Z,61.05
2017-08-24T01:12:25.282Z,61.15
2017-08-24T01:12:35.361Z,61.05
2017-08-24T01:12:45.021Z,61.08
2017-08-24T01:12:55.332Z,61.05
2017-08-24T01:13:05.386Z,61.15
2017-08-24T01:13:15.412Z,61.05
2017-08-24T01:13:25.401Z,60.86
2017-08-24T01:13:35.391Z,61.08
2017-08-24T01:13:45.421Z,60.89
2017-08-24T01:13:55.398Z,61.05
2017-08-24T01:14:05.452Z,61.08
2017-08-24T01:14:15.494Z,61.05
2017-08-24T01:14:25.472Z,61.05
2017-08-24T01:14:35.503Z,61.05
2017-08-24T01:14:45.502Z,60.67
2017-08-24T01:14:55.552Z,60.67
2017-08-24T01:15:05.501Z,60.67
2017-08-24T01:15:15.555Z,60.76
2017-08-24T01:15:25.532Z,60.76
2017-08-24T01:15:35.522Z,60.86
2017-08-24T01:15:45.601Z,60.79
2017-08-24T01:15:55.653Z,60.76
2017-08-24T01:16:05.642Z,60.86
2017-08-24T01:16:15.805Z,61.05
2017-08-24T01:16:25.360Z,61.05
2017-08-24T01:16:35.661Z,61.05
2017-08-24T01:16:45.641Z,60.89
2017-08-24T01:16:55.671Z,61.05
2017-08-24T01:17:05.720Z,61.05
2017-08-24T01:17:15.392Z,61.05
2017-08-24T01:17:25.722Z,60.86
2017-08-24T01:17:35.734Z,60.76
2017-08-24T01:17:45.721Z,61.05
2017-08-24T01:17:55.720Z,60.76
2017-08-24T01:18:05.819Z,60.86
2017-08-24T01:18:15.790Z,61.05
2017-08-24T01:18:25.822Z,60.76
2017-08-24T01:18:35.829Z,61.05
2017-08-24T01:18:45.832Z,60.99
2017-08-24T01:18:55.860Z,60.86
2017-08-24T01:19:05.881Z,60.86
2017-08-24T01:19:15.914Z,60.86
2017-08-24T01:19:25.921Z,60.96
2017-08-24T01:19:35.954Z,60.76
2017-08-24T01:19:45.921Z,60.76
2017-08-24T01:19:56.001Z,61.05
2017-08-24T01:20:05.961Z,60.96
2017-08-24T01:20:15.970Z,60.86
2017-08-24T01:20:25.971Z,61.05
2017-08-24T01:20:35.989Z,60.86
2017-08-24T01:20:46.003Z,60.76
2017-08-24T01:20:56.041Z,60.89
2017-08-24T01:21:05.702Z,61.05
2017-08-24T01:21:16.056Z,60.76
2017-08-24T01:21:26.094Z,61.05
2017-08-24T01:21:35.793Z,60.86
2017-08-24T01:21:46.083Z,60.86
2017-08-24T01:21:56.132Z,60.86
2017-08-24T01:22:06.130Z,61.05
2017-08-24T01:22:16.142Z,60.76
2017-08-24T01:22:26.142Z,60.86
2017-08-24T01:22:35.856Z,61.08
2017-08-24T01:22:46.328Z,61.05
2017-08-24T01:22:56.032Z,61.05
2017-08-24T01:23:06.192Z,60.86
2017-08-24T01:23:16.232Z,61.05
2017-08-24T01:23:26.260Z,61.05
2017-08-24T01:23:36.252Z,61.05
2017-08-24T01:23:46.253Z,61.05
2017-08-24T01:23:56.260Z,61.05
2017-08-24T01:24:06.301Z,61.05
2017-08-24T01:24:16.286Z,60.89
2017-08-24T01:24:26.303Z,61.08
2017-08-24T01:24:36.310Z,61.05
2017-08-24T01:24:46.432Z,61.05
2017-08-24T01:24:56.332Z,61.05
2017-08-24T01:25:06.341Z,60.96
2017-08-24T01:25:16.393Z,60.86
2017-08-24T01:25:26.392Z,61.08
2017-08-24T01:25:36.381Z,61.05
2017-08-24T01:25:46.401Z,60.86
2017-08-24T01:25:56.121Z,61.05
2017-08-24T01:26:06.566Z,61.05
2017-08-24T01:26:16.511Z,61.05
2017-08-24T01:26:26.547Z,60.89
2017-08-24T01:26:36.502Z,61.05
2017-08-24T01:26:46.535Z,61.05
2017-08-24T01:26:56.523Z,61.05
2017-08-24T01:27:06.492Z,61.05
2017-08-24T01:27:16.551Z,61.05
2017-08-24T01:27:26.617Z,61.05
2017-08-24T01:27:36.531Z,60.86
2017-08-24T01:27:46.592Z,61.05
2017-08-24T01:27:56.592Z,60.86
2017-08-24T01:28:06.592Z,61.05
2017-08-24T01:28:16.632Z,61.05
2017-08-24T01:28:26.662Z,60.96
2017-08-24T01:28:36.312Z,61.05
2017-08-24T01:28:46.642Z,60.96
2017-08-24T01:28:56.723Z,61.05
2017-08-24T01:29:06.711Z,60.86
2017-08-24T01:29:16.731Z,61.05
2017-08-24T01:29:26.701Z,61.05
2017-08-24T01:29:36.432Z,61.05
2017-08-24T01:29:46.780Z,61.05
2017-08-24T01:29:56.792Z,60.86
2017-08-24T01:30:06.462Z,61.05
2017-08-24T01:30:16.879Z,60.96
2017-08-24T01:30:26.802Z,61.05
2017-08-24T01:30:36.813Z,61.05
2017-08-24T01:30:46.572Z,61.05
2017-08-24T01:30:56.517Z,61.05
2017-08-24T01:31:06.861Z,61.05
2017-08-24T01:31:16.972Z,61.05
2017-08-24T01:31:26.522Z,60.76
2017-08-24T01:31:36.912Z,60.86
2017-08-24T01:31:46.912Z,61.08
2017-08-24T01:31:56.942Z,60.96
2017-08-24T01:32:06.975Z,61.05
2017-08-24T01:32:16.952Z,61.05
2017-08-24T01:32:26.961Z,60.86
2017-08-24T01:32:37.010Z,61.05
2017-08-24T01:32:47.013Z,60.86
2017-08-24T01:32:57.011Z,60.96
2017-08-24T01:33:07.013Z,61.05
2017-08-24T01:33:17.097Z,60.96
2017-08-24T01:33:27.061Z,61.05
2017-08-24T01:33:36.757Z,60.96
2017-08-24T01:33:47.121Z,60.76
2017-08-24T01:33:57.112Z,61.08
2017-08-24T01:34:07.092Z,61.05
2017-08-24T01:34:17.162Z,61.05
2017-08-24T01:34:27.161Z,61.05
2017-08-24T01:34:36.847Z,60.86
2017-08-24T01:34:47.163Z,61.05
2017-08-24T01:34:56.868Z,61.05
2017-08-24T01:35:06.875Z,61.05
2017-08-24T01:35:17.202Z,60.86
2017-08-24T01:35:27.264Z,61.05
2017-08-24T01:35:37.268Z,61.05
2017-08-24T01:35:47.261Z,61.05
2017-08-24T01:35:56.989Z,61.05
2017-08-24T01:36:07.313Z,60.96
2017-08-24T01:36:17.302Z,61.05
2017-08-24T01:36:27.373Z,61.05
2017-08-24T01:36:37.350Z,60.96
2017-08-24T01:36:47.123Z,60.96
2017-08-24T01:36:57.033Z,60.76
2017-08-24T01:37:07.386Z,60.76
2017-08-24T01:37:17.374Z,60.96
2017-08-24T01:37:27.432Z,60.96
2017-08-24T01:37:37.393Z,61.05
2017-08-24T01:37:47.435Z,60.96
2017-08-24T01:37:57.443Z,60.96
2017-08-24T01:38:07.503Z,60.76
2017-08-24T01:38:17.151Z,61.05
2017-08-24T01:38:27.462Z,61.15
2017-08-24T01:38:37.503Z,60.76
2017-08-24T01:38:47.509Z,60.76
2017-08-24T01:38:57.212Z,61.05
2017-08-24T01:39:07.630Z,60.96
2017-08-24T01:39:17.573Z,61.05
2017-08-24T01:39:27.274Z,60.96
2017-08-24T01:39:37.646Z,60.96
2017-08-24T01:39:47.632Z,60.96
2017-08-24T01:39:57.623Z,60.76
2017-08-24T01:40:07.673Z,60.96
2017-08-24T01:40:17.673Z,60.96
2017-08-24T01:40:27.682Z,60.96
2017-08-24T01:40:37.724Z,61.05
2017-08-24T01:40:47.711Z,60.76
2017-08-24T01:40:57.743Z,60.86
2017-08-24T01:41:07.714Z,60.96
2017-08-24T01:41:17.753Z,60.76
2017-08-24T01:41:27.753Z,60.76
2017-08-24T01:41:37.773Z,61.05
2017-08-24T01:41:47.755Z,60.76
2017-08-24T01:41:57.842Z,60.96
2017-08-24T01:42:07.862Z,60.76
2017-08-24T01:42:17.650Z,60.76
2017-08-24T01:42:27.853Z,60.99
2017-08-24T01:42:37.841Z,60.76
2017-08-24T01:42:47.851Z,60.96
2017-08-24T01:42:57.851Z,60.79
2017-08-24T01:43:07.928Z,61.05
2017-08-24T01:43:17.952Z,60.76
2017-08-24T01:43:27.956Z,60.86
2017-08-24T01:43:37.583Z,60.76
2017-08-24T01:43:47.971Z,60.76
2017-08-24T01:43:58.013Z,60.86
2017-08-24T01:44:07.986Z,61.05
2017-08-24T01:44:18.033Z,60.76
2017-08-24T01:44:27.644Z,60.76
2017-08-24T01:44:38.012Z,61.15
2017-08-24T01:44:48.072Z,60.86
2017-08-24T01:44:58.073Z,60.96
2017-08-24T01:45:08.105Z,60.86
2017-08-24T01:45:18.083Z,60.86
2017-08-24T01:45:28.164Z,60.86
2017-08-24T01:45:38.073Z,60.76
2017-08-24T01:45:47.845Z,60.86
2017-08-24T01:45:57.815Z,60.96
2017-08-24T01:46:08.150Z,60.86
2017-08-24T01:46:18.183Z,60.96
2017-08-24T01:46:28.200Z,60.86
2017-08-24T01:46:37.852Z,60.96
2017-08-24T01:46:48.234Z,60.86
2017-08-24T01:46:58.252Z,60.76
2017-08-24T01:47:08.233Z,61.05
2017-08-24T01:47:17.912Z,60.96
2017-08-24T01:47:28.260Z,61.05
2017-08-24T01:47:38.269Z,60.86
2017-08-24T01:47:48.314Z,60.86
2017-08-24T01:47:58.285Z,60.86
2017-08-24T01:48:07.971Z,60.86
2017-08-24T01:48:18.345Z,60.96
2017-08-24T01:48:28.333Z,60.96
2017-08-24T01:48:38.370Z,60.86
2017-08-24T01:48:48.433Z,60.76
2017-08-24T01:48:58.420Z,60.86
2017-08-24T01:49:08.093Z,60.76
2017-08-24T01:49:18.424Z,60.86
2017-08-24T01:49:28.111Z,61.05
2017-08-24T01:49:38.494Z,61.05
2017-08-24T01:49:48.452Z,60.76
2017-08-24T01:49:58.482Z,60.76
2017-08-24T01:50:08.534Z,60.76
2017-08-24T01:50:18.484Z,60.86
2017-08-24T01:50:28.541Z,60.96
2017-08-24T01:50:38.532Z,60.96
2017-08-24T01:50:48.238Z,61.05
2017-08-24T01:50:58.603Z,60.96
2017-08-24T01:51:08.613Z,60.76
2017-08-24T01:51:18.593Z,60.76
2017-08-24T01:51:28.292Z,60.96
2017-08-24T01:51:38.593Z,61.05
2017-08-24T01:51:48.636Z,61.05
2017-08-24T01:51:58.304Z,60.86
2017-08-24T01:52:08.643Z,60.86
2017-08-24T01:52:18.663Z,61.05
2017-08-24T01:52:28.683Z,60.96
2017-08-24T01:52:38.774Z,60.96
2017-08-24T01:52:48.722Z,60.96
2017-08-24T01:52:58.743Z,60.86
2017-08-24T01:53:08.723Z,60.86
2017-08-24T01:53:18.763Z,60.86
2017-08-24T01:53:28.758Z,60.86
2017-08-24T01:53:38.824Z,61.05
2017-08-24T01:53:48.773Z,60.86
2017-08-24T01:53:58.839Z,60.96
2017-08-24T01:54:08.868Z,60.96
2017-08-24T01:54:18.841Z,60.86
2017-08-24T01:54:28.855Z,60.86
2017-08-24T01:54:38.894Z,60.76
2017-08-24T01:54:49.664Z,60.96
2017-08-24T01:54:58.874Z,60.76
2017-08-24T01:55:08.589Z,61.05
2017-08-24T01:55:18.983Z,60.79
2017-08-24T01:55:28.984Z,60.96
2017-08-24T01:55:38.614Z,60.96
2017-08-24T01:55:48.633Z,61.05
2017-08-24T01:55:58.932Z,60.86
2017-08-24T01:56:08.982Z,60.86
2017-08-24T01:56:19.005Z,60.86
2017-08-24T01:56:28.995Z,60.96
2017-08-24T01:56:39.034Z,60.86
2017-08-24T01:56:49.075Z,60.86
2017-08-24T01:56:59.074Z,60.86
2017-08-24T01:57:09.095Z,61.05
2017-08-24T01:57:19.114Z,60.86
2017-08-24T01:57:29.094Z,60.86
2017-08-24T01:57:38.764Z,61.05
2017-08-24T01:57:49.103Z,61.05
2017-08-24T01:57:58.824Z,60.86
2017-08-24T01:58:09.164Z,61.15
2017-08-24T01:58:18.823Z,61.15
2017-08-24T01:58:28.843Z,61.15
2017-08-24T01:58:39.163Z,61.05
2017-08-24T01:58:49.203Z,61.05
2017-08-24T01:58:59.233Z,61.05
2017-08-24T01:59:09.244Z,61.05
2017-08-24T01:59:19.256Z,61.15
2017-08-24T01:59:28.970Z,61.05
2017-08-24T01:59:38.964Z,61.05
2017-08-24T01:59:49.293Z,60.96
2017-08-24T01:59:59.292Z,61.15
2017-08-24T02:00:09.343Z,61.15
2017-08-24T02:00:19.294Z,61.15
2017-08-24T02:00:28.992Z,61.05
2017-08-24T02:00:39.354Z,61.05
2017-08-24T02:00:49.387Z,61.05
2017-08-24T02:00:59.384Z,61.15
2017-08-24T02:01:09.444Z,61.05
2017-08-24T02:01:19.433Z,61.15
2017-08-24T02:01:29.433Z,61.15
2017-08-24T02:01:39.425Z,61.05
2017-08-24T02:01:49.484Z,61.15
2017-08-24T02:01:59.595Z,61.05
2017-08-24T02:02:09.515Z,61.15
2017-08-24T02:02:19.184Z,61.05
2017-08-24T02:02:29.494Z,61.05
2017-08-24T02:02:39.493Z,60.86
2017-08-24T02:02:49.597Z,60.96
2017-08-24T02:02:59.544Z,61.25
2017-08-24T02:03:09.674Z,61.15
2017-08-24T02:03:19.565Z,61.15
2017-08-24T02:03:29.625Z,61.15
2017-08-24T02:03:39.614Z,61.15
2017-08-24T02:03:49.688Z,61.05
2017-08-24T02:03:59.623Z,61.15
2017-08-24T02:04:09.684Z,61.15
2017-08-24T02:04:19.674Z,61.05
2017-08-24T02:04:29.400Z,61.05
2017-08-24T02:04:39.692Z,61.05
2017-08-24T02:04:49.731Z,61.05
2017-08-24T02:04:59.802Z,60.86
2017-08-24T02:05:09.495Z,60.86
2017-08-24T02:05:19.753Z,61.05
2017-08-24T02:05:29.773Z,61.15
2017-08-24T02:05:39.792Z,61.05
2017-08-24T02:05:49.782Z,61.05
2017-08-24T02:05:59.823Z,61.05
2017-08-24T02:06:09.815Z,61.05
2017-08-24T02:06:19.853Z,61.05
2017-08-24T02:06:29.912Z,60.96
2017-08-24T02:06:39.912Z,61.05
2017-08-24T02:06:49.917Z,61.15
2017-08-24T02:06:59.917Z,60.96
2017-08-24T02:07:09.954Z,60.89
2017-08-24T02:07:19.922Z,61.05
2017-08-24T02:07:29.953Z,61.15
2017-08-24T02:07:39.957Z,60.86
2017-08-24T02:07:49.986Z,61.05
2017-08-24T02:08:00.097Z,61.05
2017-08-24T02:08:10.024Z,61.15
2017-08-24T02:08:20.029Z,61.15
2017-08-24T02:08:29.654Z,61.15
2017-08-24T02:08:40.011Z,61.15
2017-08-24T02:08:50.062Z,61.05
2017-08-24T02:09:00.104Z,61.15